Terminal Aerodrome Forecast
Issued by NWS

Home | Current Version | Previous Version | Text Only | Print | Product List | Glossary On
Versions: 1 2 3 4 5 6 7 8 9 10 11 12 13 14
058
FTUS46 KMTR 031120
TAFSJC
TAF
KSJC 031120Z 0312/0412 34004KT P6SM OVC012
     FM031800 33006KT P6SM SCT015 BKN200
     FM032000 31012KT P6SM SCT020 BKN200
     FM040800 30008KT P6SM BKN015=

USA.gov is the U.S. government's official web portal to all federal, state and local government web resources and services.